Time;durP1;ratioP1;P1;durP2;ratioP2;P2;SDS_P1;SDS_P2;PMS_P1;PMS_P2;Temp;Humidity;BMP_temperature;BMP_pressure;BME280_temperature;BME280_humidity;BME280_pressure;Samples;Min_cycle;Max_cycle;Signal;HPM_P1;HPM_P2
2021/04/23 00:07:24;;;;;;;4.93;1.27;;;15.20;63.00;;;;;;20748716;28;20121;-49
2021/04/23 00:17:26;;;;;;;4.72;1.23;;;15.10;63.40;;;;;;20747122;28;20443;-49
2021/04/23 00:27:28;;;;;;;2.03;1.08;;;15.00;64.10;;;;;;20747745;28;20536;-50
2021/04/23 00:37:30;;;;;;;2.22;1.00;;;14.90;64.90;;;;;;20747222;28;20058;-49
2021/04/23 00:47:31;;;;;;;2.20;1.33;;;14.80;65.30;;;;;;20746650;28;20054;-48
2021/04/23 00:57:33;;;;;;;1.73;0.90;;;14.70;64.30;;;;;;20757784;28;20205;-48
2021/04/23 01:07:49;;;;;;;1.45;0.98;;;14.70;63.90;;;;;;20759710;28;20099;-48
2021/04/23 01:17:54;;;;;;;2.60;1.00;;;14.70;63.70;;;;;;20758368;28;20053;-48
2021/04/23 01:27:58;;;;;;;3.17;0.83;;;14.70;63.60;;;;;;20758364;28;20050;-47
2021/04/23 01:38:00;;;;;;;2.85;1.10;;;14.50;64.10;;;;;;20756865;28;20133;-49
2021/04/23 01:48:04;;;;;;;1.80;1.10;;;14.30;64.10;;;;;;20756144;28;20046;-49
2021/04/23 01:58:15;;;;;;;1.88;1.10;;;14.20;64.30;;;;;;20755767;28;20088;-49
2021/04/23 02:08:24;;;;;;;2.90;1.30;;;14.00;64.70;;;;;;20754065;28;20528;-47
2021/04/23 02:18:32;;;;;;;2.78;1.60;;;13.90;65.00;;;;;;20754293;28;20593;-47
2021/04/23 02:28:37;;;;;;;3.42;1.80;;;13.90;65.30;;;;;;20752208;28;20390;-50
2021/04/23 02:38:44;;;;;;;3.40;2.60;;;14.00;65.60;;;;;;20752442;28;20107;-50
2021/04/23 02:48:49;;;;;;;3.70;2.40;;;14.00;65.80;;;;;;20750454;28;20299;-48
2021/04/23 02:58:52;;;;;;;4.37;3.20;;;14.00;65.80;;;;;;20751205;28;20050;-50
2021/04/23 03:08:54;;;;;;;3.70;2.88;;;13.90;66.40;;;;;;20749967;28;20124;-50
2021/04/23 03:18:58;;;;;;;3.97;2.53;;;13.80;66.50;;;;;;20750169;28;20133;-46
2021/04/23 03:29:04;;;;;;;3.40;2.72;;;13.70;66.70;;;;;;20749659;28;20050;-49
2021/04/23 03:39:11;;;;;;;3.45;2.50;;;13.70;66.90;;;;;;20748121;28;20057;-49
2021/04/23 03:49:32;;;;;;;6.30;3.10;;;13.70;66.80;;;;;;20748194;28;20042;-49
2021/04/23 03:59:37;;;;;;;5.40;2.60;;;13.60;67.10;;;;;;20749163;28;20482;-49
2021/04/23 04:09:44;;;;;;;6.10;2.83;;;13.50;67.10;;;;;;20748105;28;20544;-50
2021/04/23 04:19:54;;;;;;;3.88;2.60;;;13.50;67.40;;;;;;20748255;28;20058;-50
2021/04/23 04:30:00;;;;;;;4.65;2.20;;;13.50;67.10;;;;;;20756756;28;20054;-50
2021/04/23 04:40:15;;;;;;;4.47;2.45;;;13.50;66.90;;;;;;20762336;28;20077;-51
2021/04/23 04:50:31;;;;;;;4.88;2.40;;;13.60;66.90;;;;;;20760504;28;20060;-50
2021/04/23 05:00:37;;;;;;;3.88;2.60;;;13.60;66.60;;;;;;20760393;28;20096;-49
2021/04/23 05:10:39;;;;;;;4.10;2.10;;;13.50;66.90;;;;;;20759051;28;20054;-49
2021/04/23 05:20:42;;;;;;;5.63;3.20;;;13.50;66.50;;;;;;20759306;28;20060;-48
2021/04/23 05:30:46;;;;;;;3.13;2.10;;;13.40;66.20;;;;;;20757875;28;20082;-49
2021/04/23 05:40:50;;;;;;;2.72;2.08;;;13.30;66.10;;;;;;20756748;28;20101;-49
2021/04/23 05:50:53;;;;;;;2.90;2.30;;;13.40;65.90;;;;;;20756396;28;20395;-51
2021/04/23 06:00:56;;;;;;;8.27;3.60;;;13.40;65.90;;;;;;20755869;28;20092;-49
2021/04/23 06:10:59;;;;;;;4.97;2.72;;;13.40;65.90;;;;;;20753617;28;20068;-51
2021/04/23 06:21:02;;;;;;;4.43;2.13;;;13.50;65.50;;;;;;20753545;28;20057;-48
2021/04/23 06:31:05;;;;;;;4.53;2.78;;;13.60;65.10;;;;;;20735270;28;20146;-49
2021/04/23 06:41:07;;;;;;;3.75;2.30;;;13.70;64.60;;;;;;20751943;28;20045;-50
2021/04/23 06:51:09;;;;;;;3.92;2.47;;;14.00;63.80;;;;;;20750661;28;20145;-50
2021/04/23 07:01:13;;;;;;;4.40;2.55;;;14.10;63.20;;;;;;20751218;28;20068;-49
2021/04/23 07:11:17;;;;;;;4.95;2.40;;;14.30;62.60;;;;;;20749003;28;20445;-50
2021/04/23 07:21:19;;;;;;;7.03;2.25;;;14.70;61.00;;;;;;20749352;28;20536;-49
2021/04/23 07:31:23;;;;;;;6.13;1.85;;;15.10;59.40;;;;;;20748667;28;20050;-48
2021/04/23 07:41:25;;;;;;;6.20;2.55;;;15.40;58.20;;;;;;20746918;28;20077;-49
2021/04/23 07:51:29;;;;;;;9.48;2.25;;;16.00;56.90;;;;;;20746918;28;20053;-50
2021/04/23 08:01:32;;;;;;;3.30;1.92;;;16.40;56.00;;;;;;20753784;28;20065;-49
2021/04/23 08:11:35;;;;;;;4.25;2.05;;;16.50;55.10;;;;;;20763467;28;20516;-49
2021/04/23 08:21:38;;;;;;;9.35;2.50;;;16.70;54.50;;;;;;20762942;28;20418;-49
2021/04/23 08:31:42;;;;;;;3.63;1.60;;;16.80;54.20;;;;;;20761950;28;20053;-49
2021/04/23 08:41:48;;;;;;;5.47;2.20;;;16.70;54.40;;;;;;20762015;28;20046;-49
2021/04/23 08:51:52;;;;;;;8.32;5.78;;;16.90;54.90;;;;;;20758657;28;20054;-50
2021/04/23 09:01:54;;;;;;;4.07;1.57;;;17.20;54.20;;;;;;20759290;28;20045;-49
2021/04/23 09:11:58;;;;;;;5.30;1.87;;;17.40;53.30;;;;;;20756996;28;20053;-48
2021/04/23 09:22:01;;;;;;;7.00;1.50;;;17.60;53.70;;;;;;20756607;28;20433;-52
2021/04/23 09:32:16;;;;;;;3.90;1.77;;;18.20;52.50;;;;;;20756128;28;20054;-44
2021/04/23 09:42:19;;;;;;;4.38;1.55;;;18.70;51.30;;;;;;20780994;28;20489;-47
2021/04/23 09:52:23;;;;;;;3.45;1.65;;;18.70;51.00;;;;;;20835547;28;20498;-49
2021/04/23 10:02:29;;;;;;;3.65;1.70;;;18.70;49.70;;;;;;20827867;28;20081;-50
2021/04/23 10:12:40;;;;;;;2.22;1.50;;;18.70;50.10;;;;;;20747142;28;20406;-45
2021/04/23 10:22:44;;;;;;;7.38;1.65;;;18.70;50.50;;;;;;20741781;28;20474;-52
2021/04/23 10:32:53;;;;;;;4.83;1.77;;;18.90;50.40;;;;;;20751774;28;20418;-52
2021/04/23 10:43:21;;;;;;;6.15;1.90;;;18.90;50.10;;;;;;20796069;28;20055;-50
2021/04/23 10:53:26;;;;;;;8.05;2.42;;;19.00;49.80;;;;;;20829855;28;20053;-53
2021/04/23 11:03:33;;;;;;;4.65;1.70;;;18.70;50.30;;;;;;20831745;28;20091;-51
2021/04/23 11:13:36;;;;;;;3.60;1.70;;;18.80;49.50;;;;;;20829117;28;20061;-50
2021/04/23 11:24:16;;;;;;;9.00;2.67;;;18.90;49.70;;;;;;20751721;28;20502;-51
2021/04/23 11:34:34;;;;;;;11.50;2.00;;;19.00;49.50;;;;;;20747064;28;20050;-49
2021/04/23 11:44:40;;;;;;;2.55;1.58;;;19.20;48.50;;;;;;20747884;28;20464;-49
2021/04/23 11:54:43;;;;;;;2.58;1.48;;;19.20;47.40;;;;;;20746216;28;20166;-49
2021/04/23 12:04:46;;;;;;;3.97;2.80;;;19.20;47.60;;;;;;20747432;28;20402;-48
2021/04/23 12:14:48;;;;;;;4.37;1.87;;;19.10;48.40;;;;;;20746399;28;20050;-48
2021/04/23 12:24:50;;;;;;;4.80;1.73;;;19.10;48.90;;;;;;20747268;28;20506;-49
2021/04/23 12:34:51;;;;;;;5.22;2.53;;;18.70;50.00;;;;;;20745196;28;20050;-50
2021/04/23 12:44:59;;;;;;;3.28;1.35;;;18.50;50.60;;;;;;20746700;28;20072;-50
2021/04/23 12:55:03;;;;;;;2.28;1.30;;;18.50;50.40;;;;;;20759487;28;20136;-48
2021/04/23 13:05:15;;;;;;;3.00;1.95;;;18.40;50.60;;;;;;20760048;28;20171;-49
2021/04/23 13:15:41;;;;;;;2.53;1.85;;;18.40;50.80;;;;;;20757339;28;20062;-49
2021/04/23 13:25:46;;;;;;;5.60;1.88;;;18.50;50.30;;;;;;20756647;28;20072;-49
2021/04/23 13:35:49;;;;;;;;;;;18.40;50.40;;;;;;20754573;28;20046;-48
2021/04/23 13:45:55;;;;;;;3.13;1.40;;;18.40;50.40;;;;;;20756404;28;19922;-48
2021/04/23 13:56:17;;;;;;;3.28;1.17;;;18.80;48.80;;;;;;20755194;28;20092;-49
2021/04/23 14:06:19;;;;;;;4.72;2.65;;;19.20;48.20;;;;;;20755459;28;20478;-48
2021/04/23 14:16:22;;;;;;;3.42;1.98;;;19.20;48.00;;;;;;20753370;28;20128;-48
2021/04/23 14:26:25;;;;;;;4.73;1.50;;;19.50;46.80;;;;;;20753776;28;20050;-49
2021/04/23 14:36:27;;;;;;;3.03;1.30;;;19.60;47.00;;;;;;20753003;28;20291;-47
2021/04/23 14:46:29;;;;;;;5.00;2.55;;;19.70;47.40;;;;;;20752036;28;20057;-50
2021/04/23 14:56:31;;;;;;;3.70;1.40;;;20.00;47.20;;;;;;20751579;28;20140;-50
2021/04/23 15:06:34;;;;;;;2.33;1.37;;;20.10;46.70;;;;;;20751430;28;20054;-50
2021/04/23 15:16:37;;;;;;;;;;;20.10;46.30;;;;;;20749586;28;20538;-49
2021/04/23 15:26:39;;;;;;;3.95;2.15;;;19.90;46.90;;;;;;20749931;28;20452;-51
2021/04/23 15:36:42;;;;;;;3.25;1.40;;;19.80;46.80;;;;;;20748220;28;20069;-50
2021/04/23 15:46:44;;;;;;;2.53;1.00;;;19.70;45.70;;;;;;20748306;28;20058;-51
2021/04/23 15:56:46;;;;;;;2.22;1.27;;;19.80;45.70;;;;;;20748649;28;20097;-50
2021/04/23 16:06:49;;;;;;;3.38;1.92;;;19.70;45.30;;;;;;20747827;28;20054;-50
2021/04/23 16:16:50;;;;;;;2.72;1.60;;;19.90;44.90;;;;;;20746278;28;20064;-50
2021/04/23 16:26:52;;;;;;;4.93;1.70;;;20.00;45.50;;;;;;20759881;28;20057;-51
2021/04/23 16:36:54;;;;;;;4.53;1.77;;;19.90;45.90;;;;;;20761062;28;20086;-52
2021/04/23 16:46:55;;;;;;;3.53;2.28;;;19.60;46.30;;;;;;20761630;28;20054;-51
2021/04/23 16:56:57;;;;;;;3.22;1.80;;;19.50;47.20;;;;;;20761799;28;20153;-49
2021/04/23 17:06:59;;;;;;;3.25;1.60;;;19.40;47.20;;;;;;20760580;28;20050;-51
2021/04/23 17:17:03;;;;;;;3.63;1.70;;;19.30;47.60;;;;;;20758144;28;20506;-51
2021/04/23 17:27:05;;;;;;;3.88;1.27;;;19.20;48.30;;;;;;20757291;28;20057;-48
2021/04/23 17:37:06;;;;;;;6.85;2.50;;;19.10;49.00;;;;;;20753564;28;20068;-48
2021/04/23 17:47:09;;;;;;;8.20;2.30;;;19.20;49.90;;;;;;20756374;28;20058;-50
2021/04/23 17:57:10;;;;;;;9.43;2.20;;;19.30;50.90;;;;;;20755134;28;20050;-48
2021/04/23 18:07:12;;;;;;;6.93;2.20;;;19.40;51.30;;;;;;20754283;28;20433;-49
2021/04/23 18:17:16;;;;;;;4.85;2.30;;;19.40;50.90;;;;;;20753111;28;20084;-49
2021/04/23 18:27:18;;;;;;;7.38;2.42;;;19.30;50.80;;;;;;20752095;28;20509;-50
2021/04/23 18:37:20;;;;;;;5.80;2.28;;;19.20;51.00;;;;;;20764272;28;20201;-51
2021/04/23 18:47:22;;;;;;;5.57;3.45;;;19.20;51.50;;;;;;20747891;28;20057;-50
2021/04/23 18:57:23;;;;;;;12.40;3.55;;;19.30;51.90;;;;;;20749792;28;20156;-52
2021/04/23 19:07:25;;;;;;;5.18;3.10;;;19.30;52.00;;;;;;20749421;28;20057;-51
2021/04/23 19:17:26;;;;;;;6.68;2.85;;;19.20;52.10;;;;;;20748261;28;20057;-51
2021/04/23 19:27:28;;;;;;;5.18;2.97;;;19.20;52.40;;;;;;20747044;28;20065;-51
2021/04/23 19:37:33;;;;;;;5.95;3.50;;;18.70;52.10;;;;;;20748319;28;20048;-52
2021/04/23 19:47:36;;;;;;;6.65;3.97;;;18.10;53.10;;;;;;20747369;28;20076;-52
2021/04/23 19:57:37;;;;;;;4.50;2.90;;;17.70;53.60;;;;;;20754083;28;20521;-49
2021/04/23 20:07:39;;;;;;;4.72;3.38;;;17.60;54.10;;;;;;20763520;28;20107;-51
2021/04/23 20:17:42;;;;;;;5.78;3.20;;;17.30;54.40;;;;;;20762285;28;20077;-50
2021/04/23 20:27:44;;;;;;;5.35;3.95;;;17.20;54.70;;;;;;20762216;28;20053;-52
2021/04/23 20:37:46;;;;;;;6.82;3.97;;;17.10;54.70;;;;;;20761732;28;20513;-50
2021/04/23 20:47:50;;;;;;;6.03;3.40;;;16.90;55.20;;;;;;20761460;28;20062;-51
2021/04/23 20:57:51;;;;;;;;;;;16.70;55.60;;;;;;20761526;28;20048;-50
2021/04/23 21:07:54;;;;;;;5.07;4.05;;;16.50;55.80;;;;;;20757614;28;19921;-53
2021/04/23 21:17:56;;;;;;;5.53;3.97;;;16.40;56.20;;;;;;20757803;28;20057;-53
2021/04/23 21:27:57;;;;;;;5.68;3.45;;;16.40;56.30;;;;;;20756496;28;20120;-54
2021/04/23 21:37:59;;;;;;;5.28;4.13;;;16.30;56.40;;;;;;20756475;28;20050;-52
2021/04/23 21:48:01;;;;;;;4.93;3.17;;;16.20;56.70;;;;;;20756562;28;20112;-51
2021/04/23 21:58:03;;;;;;;5.13;3.58;;;16.20;56.70;;;;;;20755682;28;20128;-54
2021/04/23 22:08:05;;;;;;;3.95;3.28;;;16.20;57.10;;;;;;20754598;28;20112;-50
2021/04/23 22:18:06;;;;;;;4.28;3.60;;;16.10;57.50;;;;;;20751235;28;20053;-51
2021/04/23 22:28:08;;;;;;;4.45;3.40;;;16.00;57.90;;;;;;20752698;28;20117;-50
2021/04/23 22:38:10;;;;;;;4.78;3.70;;;15.90;58.30;;;;;;20751091;28;20050;-49
2021/04/23 22:48:12;;;;;;;5.53;3.90;;;15.80;58.70;;;;;;20751616;28;20117;-51
2021/04/23 22:58:14;;;;;;;4.30;3.85;;;15.70;59.10;;;;;;20751177;28;20045;-52
2021/04/23 23:08:17;;;;;;;5.32;3.90;;;15.60;59.50;;;;;;20749855;28;20072;-49
2021/04/23 23:18:19;;;;;;;4.75;4.15;;;15.50;59.80;;;;;;20747232;28;20049;-50
2021/04/23 23:28:21;;;;;;;5.55;4.10;;;15.50;60.00;;;;;;20747630;28;20483;-51
2021/04/23 23:38:23;;;;;;;5.32;3.88;;;15.40;60.40;;;;;;20748095;28;20097;-51
2021/04/23 23:48:25;;;;;;;5.63;3.65;;;15.40;60.50;;;;;;20747320;28;20054;-52
2021/04/23 23:58:27;;;;;;;10.40;5.30;;;15.30;60.60;;;;;;20748028;28;20120;-52
